sensor_id;sensor_type;location;lat;lon;timestamp;P1;durP1;ratioP1;P2;durP2;ratioP2
5060;SDS011;2549;52.128;21.068;2023-12-04T00:01:16;16.23;;;8.40;;
5060;SDS011;2549;52.128;21.068;2023-12-04T00:03:44;16.58;;;8.40;;
5060;SDS011;2549;52.128;21.068;2023-12-04T00:06:11;21.80;;;9.57;;
5060;SDS011;2549;52.128;21.068;2023-12-04T00:08:39;15.38;;;10.10;;
5060;SDS011;2549;52.128;21.068;2023-12-04T00:11:06;16.75;;;9.25;;
5060;SDS011;2549;52.128;21.068;2023-12-04T00:13:34;16.25;;;8.93;;
5060;SDS011;2549;52.128;21.068;2023-12-04T00:16:01;14.93;;;9.10;;
5060;SDS011;2549;52.128;21.068;2023-12-04T00:18:29;16.48;;;9.30;;
5060;SDS011;2549;52.128;21.068;2023-12-04T00:20:56;20.40;;;9.93;;
5060;SDS011;2549;52.128;21.068;2023-12-04T00:23:23;18.73;;;9.38;;
5060;SDS011;2549;52.128;21.068;2023-12-04T00:25:50;21.15;;;9.68;;
5060;SDS011;2549;52.128;21.068;2023-12-04T00:28:17;15.57;;;8.63;;
5060;SDS011;2549;52.128;21.068;2023-12-04T00:30:44;16.45;;;9.00;;
5060;SDS011;2549;52.128;21.068;2023-12-04T00:33:11;17.88;;;9.60;;
5060;SDS011;2549;52.128;21.068;2023-12-04T00:35:38;19.10;;;9.00;;
5060;SDS011;2549;52.128;21.068;2023-12-04T00:38:04;17.08;;;10.18;;
5060;SDS011;2549;52.128;21.068;2023-12-04T00:40:31;17.30;;;9.32;;
5060;SDS011;2549;52.128;21.068;2023-12-04T00:42:59;13.00;;;8.15;;
5060;SDS011;2549;52.128;21.068;2023-12-04T00:45:26;16.05;;;9.90;;
5060;SDS011;2549;52.128;21.068;2023-12-04T00:47:53;17.05;;;8.98;;
5060;SDS011;2549;52.128;21.068;2023-12-04T00:50:20;23.42;;;9.68;;
5060;SDS011;2549;52.128;21.068;2023-12-04T00:52:47;14.32;;;9.02;;
5060;SDS011;2549;52.128;21.068;2023-12-04T00:55:14;18.83;;;9.55;;
5060;SDS011;2549;52.128;21.068;2023-12-04T00:57:41;14.55;;;9.18;;
5060;SDS011;2549;52.128;21.068;2023-12-04T01:00:08;18.45;;;10.25;;
5060;SDS011;2549;52.128;21.068;2023-12-04T01:02:35;20.58;;;10.25;;
5060;SDS011;2549;52.128;21.068;2023-12-04T01:05:02;16.65;;;9.43;;
5060;SDS011;2549;52.128;21.068;2023-12-04T01:07:29;16.35;;;9.07;;
5060;SDS011;2549;52.128;21.068;2023-12-04T01:09:56;15.15;;;9.30;;
5060;SDS011;2549;52.128;21.068;2023-12-04T01:12:23;14.85;;;9.02;;
5060;SDS011;2549;52.128;21.068;2023-12-04T01:14:50;22.23;;;10.10;;
5060;SDS011;2549;52.128;21.068;2023-12-04T01:17:17;21.10;;;10.60;;
5060;SDS011;2549;52.128;21.068;2023-12-04T01:19:44;16.90;;;10.02;;
5060;SDS011;2549;52.128;21.068;2023-12-04T01:22:11;18.48;;;11.02;;
5060;SDS011;2549;52.128;21.068;2023-12-04T01:24:38;19.77;;;10.55;;
5060;SDS011;2549;52.128;21.068;2023-12-04T01:27:05;16.50;;;9.82;;
5060;SDS011;2549;52.128;21.068;2023-12-04T01:29:31;18.13;;;9.90;;
5060;SDS011;2549;52.128;21.068;2023-12-04T01:31:58;18.23;;;10.20;;
5060;SDS011;2549;52.128;21.068;2023-12-04T01:34:25;17.88;;;10.20;;
5060;SDS011;2549;52.128;21.068;2023-12-04T01:36:52;18.40;;;9.95;;
5060;SDS011;2549;52.128;21.068;2023-12-04T01:39:19;15.10;;;8.83;;
5060;SDS011;2549;52.128;21.068;2023-12-04T01:41:46;21.40;;;10.23;;
5060;SDS011;2549;52.128;21.068;2023-12-04T01:44:13;20.33;;;10.05;;
5060;SDS011;2549;52.128;21.068;2023-12-04T01:46:40;24.42;;;11.63;;
5060;SDS011;2549;52.128;21.068;2023-12-04T01:49:08;15.70;;;9.70;;
5060;SDS011;2549;52.128;21.068;2023-12-04T01:51:35;18.05;;;10.35;;
5060;SDS011;2549;52.128;21.068;2023-12-04T01:54:03;16.50;;;8.88;;
5060;SDS011;2549;52.128;21.068;2023-12-04T01:56:31;13.35;;;9.60;;
5060;SDS011;2549;52.128;21.068;2023-12-04T01:59:00;15.90;;;9.15;;
5060;SDS011;2549;52.128;21.068;2023-12-04T02:01:27;15.27;;;9.00;;
5060;SDS011;2549;52.128;21.068;2023-12-04T02:03:54;15.90;;;8.10;;
5060;SDS011;2549;52.128;21.068;2023-12-04T02:06:23;13.38;;;8.63;;
5060;SDS011;2549;52.128;21.068;2023-12-04T02:08:51;11.13;;;7.25;;
5060;SDS011;2549;52.128;21.068;2023-12-04T02:11:18;13.43;;;7.85;;
5060;SDS011;2549;52.128;21.068;2023-12-04T02:13:45;7.60;;;5.75;;
5060;SDS011;2549;52.128;21.068;2023-12-04T02:16:12;8.88;;;6.80;;
5060;SDS011;2549;52.128;21.068;2023-12-04T02:18:41;10.43;;;6.93;;
5060;SDS011;2549;52.128;21.068;2023-12-04T02:21:09;10.45;;;6.50;;
5060;SDS011;2549;52.128;21.068;2023-12-04T02:23:36;10.57;;;6.50;;
5060;SDS011;2549;52.128;21.068;2023-12-04T02:26:05;8.05;;;5.78;;
5060;SDS011;2549;52.128;21.068;2023-12-04T02:28:37;7.97;;;6.15;;
5060;SDS011;2549;52.128;21.068;2023-12-04T02:31:06;10.07;;;6.75;;
5060;SDS011;2549;52.128;21.068;2023-12-04T02:33:34;9.85;;;6.45;;
5060;SDS011;2549;52.128;21.068;2023-12-04T02:36:02;7.05;;;5.57;;
5060;SDS011;2549;52.128;21.068;2023-12-04T02:38:31;9.63;;;6.22;;
5060;SDS011;2549;52.128;21.068;2023-12-04T02:40:58;8.10;;;5.78;;
5060;SDS011;2549;52.128;21.068;2023-12-04T02:43:25;8.38;;;6.00;;
5060;SDS011;2549;52.128;21.068;2023-12-04T02:45:52;10.88;;;6.50;;
5060;SDS011;2549;52.128;21.068;2023-12-04T02:48:19;8.88;;;5.50;;
5060;SDS011;2549;52.128;21.068;2023-12-04T02:50:46;12.10;;;6.00;;
5060;SDS011;2549;52.128;21.068;2023-12-04T02:53:13;6.70;;;5.45;;
5060;SDS011;2549;52.128;21.068;2023-12-04T02:55:40;9.52;;;6.00;;
5060;SDS011;2549;52.128;21.068;2023-12-04T02:58:07;12.60;;;6.70;;
5060;SDS011;2549;52.128;21.068;2023-12-04T03:00:34;7.85;;;5.85;;
5060;SDS011;2549;52.128;21.068;2023-12-04T03:03:01;7.25;;;5.30;;
5060;SDS011;2549;52.128;21.068;2023-12-04T03:05:28;10.82;;;6.65;;
5060;SDS011;2549;52.128;21.068;2023-12-04T03:07:56;10.18;;;6.10;;
5060;SDS011;2549;52.128;21.068;2023-12-04T03:10:23;7.40;;;5.55;;
5060;SDS011;2549;52.128;21.068;2023-12-04T03:12:50;8.32;;;5.85;;
5060;SDS011;2549;52.128;21.068;2023-12-04T03:15:17;10.27;;;7.15;;
5060;SDS011;2549;52.128;21.068;2023-12-04T03:17:47;9.48;;;5.82;;
5060;SDS011;2549;52.128;21.068;2023-12-04T03:20:13;10.32;;;6.43;;
5060;SDS011;2549;52.128;21.068;2023-12-04T03:22:40;10.88;;;6.00;;
5060;SDS011;2549;52.128;21.068;2023-12-04T03:25:07;7.15;;;5.47;;
5060;SDS011;2549;52.128;21.068;2023-12-04T03:27:34;8.23;;;5.90;;
5060;SDS011;2549;52.128;21.068;2023-12-04T03:30:01;13.25;;;7.03;;
5060;SDS011;2549;52.128;21.068;2023-12-04T03:32:29;8.43;;;6.00;;
5060;SDS011;2549;52.128;21.068;2023-12-04T03:34:59;8.73;;;5.90;;
5060;SDS011;2549;52.128;21.068;2023-12-04T03:37:26;10.07;;;6.18;;
5060;SDS011;2549;52.128;21.068;2023-12-04T03:39:53;7.85;;;6.07;;
5060;SDS011;2549;52.128;21.068;2023-12-04T03:42:20;13.65;;;6.40;;
5060;SDS011;2549;52.128;21.068;2023-12-04T03:44:47;11.43;;;6.80;;
5060;SDS011;2549;52.128;21.068;2023-12-04T03:47:14;9.10;;;6.60;;
5060;SDS011;2549;52.128;21.068;2023-12-04T03:49:41;9.45;;;5.80;;
5060;SDS011;2549;52.128;21.068;2023-12-04T03:52:08;9.30;;;6.43;;
5060;SDS011;2549;52.128;21.068;2023-12-04T03:54:34;8.02;;;5.25;;
5060;SDS011;2549;52.128;21.068;2023-12-04T03:57:01;8.95;;;5.53;;
5060;SDS011;2549;52.128;21.068;2023-12-04T03:59:28;8.32;;;5.70;;
5060;SDS011;2549;52.128;21.068;2023-12-04T04:01:55;7.85;;;6.55;;
5060;SDS011;2549;52.128;21.068;2023-12-04T04:04:22;8.48;;;6.38;;
5060;SDS011;2549;52.128;21.068;2023-12-04T04:06:49;9.32;;;6.65;;
5060;SDS011;2549;52.128;21.068;2023-12-04T04:09:16;8.50;;;6.15;;
5060;SDS011;2549;52.128;21.068;2023-12-04T04:11:43;9.60;;;6.45;;
5060;SDS011;2549;52.128;21.068;2023-12-04T04:14:10;11.60;;;6.18;;
5060;SDS011;2549;52.128;21.068;2023-12-04T04:16:37;10.13;;;7.05;;
5060;SDS011;2549;52.128;21.068;2023-12-04T04:19:03;11.82;;;6.85;;
5060;SDS011;2549;52.128;21.068;2023-12-04T04:21:31;11.82;;;6.60;;
5060;SDS011;2549;52.128;21.068;2023-12-04T04:23:59;8.15;;;5.95;;
5060;SDS011;2549;52.128;21.068;2023-12-04T04:26:26;11.35;;;5.85;;
5060;SDS011;2549;52.128;21.068;2023-12-04T04:28:52;10.88;;;6.35;;
5060;SDS011;2549;52.128;21.068;2023-12-04T04:31:19;8.95;;;6.10;;
5060;SDS011;2549;52.128;21.068;2023-12-04T04:33:46;8.73;;;6.70;;
5060;SDS011;2549;52.128;21.068;2023-12-04T04:36:13;11.98;;;7.72;;
5060;SDS011;2549;52.128;21.068;2023-12-04T04:38:40;8.55;;;6.28;;
5060;SDS011;2549;52.128;21.068;2023-12-04T04:41:07;15.75;;;8.02;;
5060;SDS011;2549;52.128;21.068;2023-12-04T04:43:40;9.77;;;6.50;;
5060;SDS011;2549;52.128;21.068;2023-12-04T04:46:07;10.82;;;7.30;;
5060;SDS011;2549;52.128;21.068;2023-12-04T04:48:35;9.85;;;6.28;;
5060;SDS011;2549;52.128;21.068;2023-12-04T04:51:02;9.15;;;6.13;;
5060;SDS011;2549;52.128;21.068;2023-12-04T04:53:29;10.98;;;6.70;;
5060;SDS011;2549;52.128;21.068;2023-12-04T04:55:56;13.32;;;7.53;;
5060;SDS011;2549;52.128;21.068;2023-12-04T04:58:24;9.90;;;5.88;;
5060;SDS011;2549;52.128;21.068;2023-12-04T05:00:50;10.90;;;6.82;;
5060;SDS011;2549;52.128;21.068;2023-12-04T05:03:17;10.68;;;6.80;;
5060;SDS011;2549;52.128;21.068;2023-12-04T05:05:45;10.20;;;6.63;;
5060;SDS011;2549;52.128;21.068;2023-12-04T05:08:12;9.02;;;6.70;;
5060;SDS011;2549;52.128;21.068;2023-12-04T05:10:40;11.90;;;7.10;;
5060;SDS011;2549;52.128;21.068;2023-12-04T05:13:07;11.77;;;5.93;;
5060;SDS011;2549;52.128;21.068;2023-12-04T05:15:34;12.27;;;6.68;;
5060;SDS011;2549;52.128;21.068;2023-12-04T05:18:01;15.02;;;8.05;;
5060;SDS011;2549;52.128;21.068;2023-12-04T05:20:28;10.82;;;7.35;;
5060;SDS011;2549;52.128;21.068;2023-12-04T05:22:56;11.80;;;7.03;;
5060;SDS011;2549;52.128;21.068;2023-12-04T05:25:23;9.98;;;6.63;;
5060;SDS011;2549;52.128;21.068;2023-12-04T05:27:56;12.35;;;7.88;;
5060;SDS011;2549;52.128;21.068;2023-12-04T05:30:23;12.52;;;7.22;;
5060;SDS011;2549;52.128;21.068;2023-12-04T05:32:50;11.25;;;7.30;;
5060;SDS011;2549;52.128;21.068;2023-12-04T05:35:17;11.30;;;6.57;;
5060;SDS011;2549;52.128;21.068;2023-12-04T05:37:44;10.85;;;6.60;;
5060;SDS011;2549;52.128;21.068;2023-12-04T05:40:11;11.07;;;6.93;;
5060;SDS011;2549;52.128;21.068;2023-12-04T05:42:39;9.43;;;6.40;;
5060;SDS011;2549;52.128;21.068;2023-12-04T05:45:06;9.70;;;6.03;;
5060;SDS011;2549;52.128;21.068;2023-12-04T05:47:34;8.93;;;6.88;;
5060;SDS011;2549;52.128;21.068;2023-12-04T05:50:01;11.88;;;7.28;;
5060;SDS011;2549;52.128;21.068;2023-12-04T05:52:28;12.95;;;6.80;;
5060;SDS011;2549;52.128;21.068;2023-12-04T05:54:55;10.68;;;6.57;;
5060;SDS011;2549;52.128;21.068;2023-12-04T05:57:21;9.15;;;6.93;;
5060;SDS011;2549;52.128;21.068;2023-12-04T05:59:48;10.25;;;6.90;;
5060;SDS011;2549;52.128;21.068;2023-12-04T06:02:15;9.75;;;6.45;;
5060;SDS011;2549;52.128;21.068;2023-12-04T06:04:43;12.70;;;7.07;;
5060;SDS011;2549;52.128;21.068;2023-12-04T06:07:09;10.27;;;6.80;;
5060;SDS011;2549;52.128;21.068;2023-12-04T06:09:36;12.05;;;7.05;;
5060;SDS011;2549;52.128;21.068;2023-12-04T06:12:03;10.25;;;7.10;;
5060;SDS011;2549;52.128;21.068;2023-12-04T06:14:34;13.73;;;7.93;;
5060;SDS011;2549;52.128;21.068;2023-12-04T06:17:01;15.55;;;8.13;;
5060;SDS011;2549;52.128;21.068;2023-12-04T06:19:28;12.98;;;7.53;;
5060;SDS011;2549;52.128;21.068;2023-12-04T06:21:56;12.45;;;7.50;;
5060;SDS011;2549;52.128;21.068;2023-12-04T06:24:23;10.52;;;7.25;;
5060;SDS011;2549;52.128;21.068;2023-12-04T06:26:50;16.65;;;7.45;;
5060;SDS011;2549;52.128;21.068;2023-12-04T06:29:17;12.13;;;8.15;;
5060;SDS011;2549;52.128;21.068;2023-12-04T06:31:45;13.57;;;7.35;;
5060;SDS011;2549;52.128;21.068;2023-12-04T06:34:13;10.25;;;6.95;;
5060;SDS011;2549;52.128;21.068;2023-12-04T06:36:40;13.93;;;7.70;;
5060;SDS011;2549;52.128;21.068;2023-12-04T06:39:11;10.90;;;7.50;;
5060;SDS011;2549;52.128;21.068;2023-12-04T06:41:42;12.80;;;7.63;;
5060;SDS011;2549;52.128;21.068;2023-12-04T06:44:10;14.43;;;7.80;;
5060;SDS011;2549;52.128;21.068;2023-12-04T06:46:38;13.35;;;8.15;;
5060;SDS011;2549;52.128;21.068;2023-12-04T06:49:05;16.25;;;8.32;;
5060;SDS011;2549;52.128;21.068;2023-12-04T06:51:33;12.18;;;8.35;;
5060;SDS011;2549;52.128;21.068;2023-12-04T06:54:00;14.80;;;8.27;;
5060;SDS011;2549;52.128;21.068;2023-12-04T06:56:27;16.45;;;7.88;;
5060;SDS011;2549;52.128;21.068;2023-12-04T06:58:53;15.52;;;8.40;;
5060;SDS011;2549;52.128;21.068;2023-12-04T07:01:20;13.25;;;8.50;;
5060;SDS011;2549;52.128;21.068;2023-12-04T07:03:48;14.32;;;8.50;;
5060;SDS011;2549;52.128;21.068;2023-12-04T07:06:15;16.20;;;8.10;;
5060;SDS011;2549;52.128;21.068;2023-12-04T07:08:42;14.23;;;8.18;;
5060;SDS011;2549;52.128;21.068;2023-12-04T07:11:09;12.15;;;7.75;;
5060;SDS011;2549;52.128;21.068;2023-12-04T07:13:36;15.73;;;8.82;;
5060;SDS011;2549;52.128;21.068;2023-12-04T07:16:03;12.18;;;8.57;;
5060;SDS011;2549;52.128;21.068;2023-12-04T07:18:31;16.35;;;9.02;;
5060;SDS011;2549;52.128;21.068;2023-12-04T07:20:57;17.10;;;9.73;;
5060;SDS011;2549;52.128;21.068;2023-12-04T07:23:24;15.48;;;9.25;;
5060;SDS011;2549;52.128;21.068;2023-12-04T07:25:53;11.57;;;8.23;;
5060;SDS011;2549;52.128;21.068;2023-12-04T07:28:20;16.70;;;9.10;;
5060;SDS011;2549;52.128;21.068;2023-12-04T07:30:46;17.45;;;9.75;;
5060;SDS011;2549;52.128;21.068;2023-12-04T07:33:13;15.23;;;9.20;;
5060;SDS011;2549;52.128;21.068;2023-12-04T07:35:40;16.88;;;9.35;;
5060;SDS011;2549;52.128;21.068;2023-12-04T07:38:07;12.93;;;8.75;;
5060;SDS011;2549;52.128;21.068;2023-12-04T07:40:34;18.90;;;9.60;;
5060;SDS011;2549;52.128;21.068;2023-12-04T07:43:01;16.88;;;9.55;;
5060;SDS011;2549;52.128;21.068;2023-12-04T07:45:28;15.07;;;8.85;;
5060;SDS011;2549;52.128;21.068;2023-12-04T07:47:55;15.13;;;8.95;;
5060;SDS011;2549;52.128;21.068;2023-12-04T07:50:22;16.25;;;9.10;;
5060;SDS011;2549;52.128;21.068;2023-12-04T07:52:50;16.58;;;10.38;;
5060;SDS011;2549;52.128;21.068;2023-12-04T07:55:17;18.10;;;10.40;;
5060;SDS011;2549;52.128;21.068;2023-12-04T07:57:44;15.80;;;9.23;;
5060;SDS011;2549;52.128;21.068;2023-12-04T08:00:13;14.80;;;10.15;;
5060;SDS011;2549;52.128;21.068;2023-12-04T08:02:40;15.10;;;9.60;;
5060;SDS011;2549;52.128;21.068;2023-12-04T08:05:11;15.82;;;9.65;;
5060;SDS011;2549;52.128;21.068;2023-12-04T08:07:39;17.17;;;9.38;;
5060;SDS011;2549;52.128;21.068;2023-12-04T08:10:06;15.60;;;10.10;;
5060;SDS011;2549;52.128;21.068;2023-12-04T08:12:34;19.95;;;10.25;;
5060;SDS011;2549;52.128;21.068;2023-12-04T08:15:02;14.98;;;9.43;;
5060;SDS011;2549;52.128;21.068;2023-12-04T08:17:30;19.35;;;10.10;;
5060;SDS011;2549;52.128;21.068;2023-12-04T08:19:57;15.73;;;8.48;;
5060;SDS011;2549;52.128;21.068;2023-12-04T08:22:25;27.48;;;9.55;;
5060;SDS011;2549;52.128;21.068;2023-12-04T08:24:51;13.95;;;8.68;;
5060;SDS011;2549;52.128;21.068;2023-12-04T08:27:19;13.32;;;8.55;;
5060;SDS011;2549;52.128;21.068;2023-12-04T08:29:46;18.88;;;10.07;;
5060;SDS011;2549;52.128;21.068;2023-12-04T08:32:13;14.52;;;8.48;;
5060;SDS011;2549;52.128;21.068;2023-12-04T08:34:40;15.38;;;9.88;;
5060;SDS011;2549;52.128;21.068;2023-12-04T08:37:07;15.70;;;9.40;;
5060;SDS011;2549;52.128;21.068;2023-12-04T08:39:34;15.82;;;9.55;;
5060;SDS011;2549;52.128;21.068;2023-12-04T08:42:01;17.70;;;8.52;;
5060;SDS011;2549;52.128;21.068;2023-12-04T08:44:34;17.80;;;9.02;;
5060;SDS011;2549;52.128;21.068;2023-12-04T08:47:01;13.18;;;7.80;;
5060;SDS011;2549;52.128;21.068;2023-12-04T08:49:29;18.63;;;9.05;;
5060;SDS011;2549;52.128;21.068;2023-12-04T08:52:08;12.90;;;7.75;;
5060;SDS011;2549;52.128;21.068;2023-12-04T08:54:38;12.35;;;8.18;;
5060;SDS011;2549;52.128;21.068;2023-12-04T08:57:07;20.85;;;8.50;;
5060;SDS011;2549;52.128;21.068;2023-12-04T08:59:34;23.95;;;9.75;;
5060;SDS011;2549;52.128;21.068;2023-12-04T09:02:02;13.18;;;8.18;;
5060;SDS011;2549;52.128;21.068;2023-12-04T09:04:30;15.57;;;8.18;;
5060;SDS011;2549;52.128;21.068;2023-12-04T09:06:59;14.50;;;8.40;;
5060;SDS011;2549;52.128;21.068;2023-12-04T09:09:29;15.43;;;7.93;;
5060;SDS011;2549;52.128;21.068;2023-12-04T09:11:56;16.80;;;10.32;;
5060;SDS011;2549;52.128;21.068;2023-12-04T09:14:23;16.77;;;8.35;;
5060;SDS011;2549;52.128;21.068;2023-12-04T09:16:50;11.63;;;6.57;;
5060;SDS011;2549;52.128;21.068;2023-12-04T09:19:17;19.92;;;9.57;;
5060;SDS011;2549;52.128;21.068;2023-12-04T09:21:44;15.80;;;9.18;;
5060;SDS011;2549;52.128;21.068;2023-12-04T09:24:13;12.32;;;8.07;;
5060;SDS011;2549;52.128;21.068;2023-12-04T09:26:40;18.40;;;9.15;;
5060;SDS011;2549;52.128;21.068;2023-12-04T09:29:07;17.83;;;9.73;;
5060;SDS011;2549;52.128;21.068;2023-12-04T09:31:35;16.13;;;8.75;;
5060;SDS011;2549;52.128;21.068;2023-12-04T09:34:01;14.48;;;8.55;;
5060;SDS011;2549;52.128;21.068;2023-12-04T09:36:28;15.80;;;8.45;;
5060;SDS011;2549;52.128;21.068;2023-12-04T09:38:56;22.45;;;9.85;;
5060;SDS011;2549;52.128;21.068;2023-12-04T09:41:23;17.15;;;9.32;;
5060;SDS011;2549;52.128;21.068;2023-12-04T09:43:50;14.45;;;8.55;;
5060;SDS011;2549;52.128;21.068;2023-12-04T09:46:18;15.73;;;8.35;;
5060;SDS011;2549;52.128;21.068;2023-12-04T09:48:45;11.55;;;7.72;;
5060;SDS011;2549;52.128;21.068;2023-12-04T09:51:13;14.40;;;7.75;;
5060;SDS011;2549;52.128;21.068;2023-12-04T09:53:42;15.70;;;8.02;;
5060;SDS011;2549;52.128;21.068;2023-12-04T09:56:09;14.10;;;8.75;;
5060;SDS011;2549;52.128;21.068;2023-12-04T09:58:38;16.88;;;7.88;;
5060;SDS011;2549;52.128;21.068;2023-12-04T10:01:06;22.05;;;8.93;;
5060;SDS011;2549;52.128;21.068;2023-12-04T10:03:34;20.40;;;9.70;;
5060;SDS011;2549;52.128;21.068;2023-12-04T10:06:03;18.25;;;9.43;;
5060;SDS011;2549;52.128;21.068;2023-12-04T10:08:31;13.95;;;8.50;;
5060;SDS011;2549;52.128;21.068;2023-12-04T10:10:58;16.40;;;9.77;;
5060;SDS011;2549;52.128;21.068;2023-12-04T10:13:26;21.17;;;9.35;;
5060;SDS011;2549;52.128;21.068;2023-12-04T10:16:13;17.38;;;9.25;;
5060;SDS011;2549;52.128;21.068;2023-12-04T10:18:40;18.83;;;9.98;;
5060;SDS011;2549;52.128;21.068;2023-12-04T10:21:07;17.40;;;9.30;;
5060;SDS011;2549;52.128;21.068;2023-12-04T10:23:43;19.10;;;9.68;;
5060;SDS011;2549;52.128;21.068;2023-12-04T10:26:14;17.92;;;9.35;;
5060;SDS011;2549;52.128;21.068;2023-12-04T10:29:03;23.52;;;10.45;;
5060;SDS011;2549;52.128;21.068;2023-12-04T10:31:32;21.30;;;10.27;;
5060;SDS011;2549;52.128;21.068;2023-12-04T10:34:01;18.00;;;9.15;;
5060;SDS011;2549;52.128;21.068;2023-12-04T10:36:28;18.48;;;8.80;;
5060;SDS011;2549;52.128;21.068;2023-12-04T10:38:59;18.98;;;10.38;;
5060;SDS011;2549;52.128;21.068;2023-12-04T10:41:27;16.92;;;8.80;;
5060;SDS011;2549;52.128;21.068;2023-12-04T10:43:54;18.75;;;10.00;;
5060;SDS011;2549;52.128;21.068;2023-12-04T10:46:32;21.52;;;11.27;;
5060;SDS011;2549;52.128;21.068;2023-12-04T10:49:03;20.63;;;10.52;;
5060;SDS011;2549;52.128;21.068;2023-12-04T10:51:32;18.10;;;10.52;;
5060;SDS011;2549;52.128;21.068;2023-12-04T10:54:01;16.67;;;9.30;;
5060;SDS011;2549;52.128;21.068;2023-12-04T10:56:38;22.15;;;9.93;;
5060;SDS011;2549;52.128;21.068;2023-12-04T10:59:08;18.73;;;10.30;;
5060;SDS011;2549;52.128;21.068;2023-12-04T11:01:38;21.67;;;9.07;;
5060;SDS011;2549;52.128;21.068;2023-12-04T11:04:09;16.50;;;9.25;;
5060;SDS011;2549;52.128;21.068;2023-12-04T11:06:43;28.15;;;11.75;;
5060;SDS011;2549;52.128;21.068;2023-12-04T11:09:18;14.57;;;9.25;;
5060;SDS011;2549;52.128;21.068;2023-12-04T11:11:48;20.20;;;10.00;;
5060;SDS011;2549;52.128;21.068;2023-12-04T11:14:21;20.80;;;10.80;;
5060;SDS011;2549;52.128;21.068;2023-12-04T11:16:57;20.77;;;10.57;;
5060;SDS011;2549;52.128;21.068;2023-12-04T11:19:32;20.88;;;9.77;;
5060;SDS011;2549;52.128;21.068;2023-12-04T11:22:07;20.80;;;9.00;;
5060;SDS011;2549;52.128;21.068;2023-12-04T11:24:36;17.95;;;9.43;;
5060;SDS011;2549;52.128;21.068;2023-12-04T11:27:03;21.33;;;10.80;;
5060;SDS011;2549;52.128;21.068;2023-12-04T11:29:30;20.17;;;10.70;;
5060;SDS011;2549;52.128;21.068;2023-12-04T11:31:59;16.80;;;9.60;;
5060;SDS011;2549;52.128;21.068;2023-12-04T11:34:26;21.45;;;10.20;;
5060;SDS011;2549;52.128;21.068;2023-12-04T11:36:53;18.52;;;9.23;;
5060;SDS011;2549;52.128;21.068;2023-12-04T11:39:22;20.52;;;10.18;;
5060;SDS011;2549;52.128;21.068;2023-12-04T11:41:51;16.30;;;9.48;;
5060;SDS011;2549;52.128;21.068;2023-12-04T11:44:19;15.35;;;8.73;;
5060;SDS011;2549;52.128;21.068;2023-12-04T11:46:55;15.63;;;10.20;;
5060;SDS011;2549;52.128;21.068;2023-12-04T11:49:30;18.05;;;9.75;;
5060;SDS011;2549;52.128;21.068;2023-12-04T11:52:01;19.58;;;9.43;;
5060;SDS011;2549;52.128;21.068;2023-12-04T11:54:54;18.75;;;9.48;;
5060;SDS011;2549;52.128;21.068;2023-12-04T11:57:39;17.90;;;9.85;;
5060;SDS011;2549;52.128;21.068;2023-12-04T12:05:39;16.05;;;8.90;;
5060;SDS011;2549;52.128;21.068;2023-12-04T12:08:08;16.85;;;8.27;;
5060;SDS011;2549;52.128;21.068;2023-12-04T12:10:35;15.57;;;8.48;;
5060;SDS011;2549;52.128;21.068;2023-12-04T12:13:02;14.82;;;8.93;;
5060;SDS011;2549;52.128;21.068;2023-12-04T12:15:29;16.75;;;9.15;;
5060;SDS011;2549;52.128;21.068;2023-12-04T12:17:59;15.13;;;7.95;;
5060;SDS011;2549;52.128;21.068;2023-12-04T12:20:26;14.95;;;8.65;;
5060;SDS011;2549;52.128;21.068;2023-12-04T12:22:53;13.45;;;7.65;;
5060;SDS011;2549;52.128;21.068;2023-12-04T12:25:20;18.88;;;8.70;;
5060;SDS011;2549;52.128;21.068;2023-12-04T12:27:49;13.70;;;7.60;;
5060;SDS011;2549;52.128;21.068;2023-12-04T12:30:17;15.45;;;8.10;;
5060;SDS011;2549;52.128;21.068;2023-12-04T12:32:44;13.20;;;7.90;;
5060;SDS011;2549;52.128;21.068;2023-12-04T12:35:11;12.48;;;8.38;;
5060;SDS011;2549;52.128;21.068;2023-12-04T12:37:38;17.23;;;8.18;;
5060;SDS011;2549;52.128;21.068;2023-12-04T12:40:05;13.45;;;7.35;;
5060;SDS011;2549;52.128;21.068;2023-12-04T12:42:36;16.73;;;8.18;;
5060;SDS011;2549;52.128;21.068;2023-12-04T12:45:08;13.85;;;6.97;;
5060;SDS011;2549;52.128;21.068;2023-12-04T12:47:40;15.07;;;7.63;;
5060;SDS011;2549;52.128;21.068;2023-12-04T12:50:09;14.05;;;9.02;;
5060;SDS011;2549;52.128;21.068;2023-12-04T12:52:41;18.10;;;7.72;;
5060;SDS011;2549;52.128;21.068;2023-12-04T12:55:09;13.38;;;8.02;;
5060;SDS011;2549;52.128;21.068;2023-12-04T12:57:36;16.73;;;7.93;;
5060;SDS011;2549;52.128;21.068;2023-12-04T13:00:04;18.58;;;7.78;;
5060;SDS011;2549;52.128;21.068;2023-12-04T13:02:37;14.10;;;8.27;;
5060;SDS011;2549;52.128;21.068;2023-12-04T13:05:05;13.57;;;7.13;;
5060;SDS011;2549;52.128;21.068;2023-12-04T13:07:33;13.80;;;6.90;;
5060;SDS011;2549;52.128;21.068;2023-12-04T13:10:00;14.63;;;7.53;;
5060;SDS011;2549;52.128;21.068;2023-12-04T13:12:27;15.30;;;7.65;;
5060;SDS011;2549;52.128;21.068;2023-12-04T13:14:53;10.68;;;7.10;;
5060;SDS011;2549;52.128;21.068;2023-12-04T13:17:20;15.75;;;7.40;;
5060;SDS011;2549;52.128;21.068;2023-12-04T13:19:47;17.73;;;7.75;;
5060;SDS011;2549;52.128;21.068;2023-12-04T13:22:14;11.10;;;7.60;;
5060;SDS011;2549;52.128;21.068;2023-12-04T13:24:41;13.60;;;7.40;;
5060;SDS011;2549;52.128;21.068;2023-12-04T13:27:08;14.80;;;7.05;;
5060;SDS011;2549;52.128;21.068;2023-12-04T13:29:35;13.20;;;7.05;;
5060;SDS011;2549;52.128;21.068;2023-12-04T13:32:02;16.05;;;7.65;;
5060;SDS011;2549;52.128;21.068;2023-12-04T13:34:31;14.23;;;7.45;;
5060;SDS011;2549;52.128;21.068;2023-12-04T13:36:58;18.48;;;9.23;;
5060;SDS011;2549;52.128;21.068;2023-12-04T13:39:25;19.25;;;8.77;;
5060;SDS011;2549;52.128;21.068;2023-12-04T13:42:14;13.95;;;7.40;;
5060;SDS011;2549;52.128;21.068;2023-12-04T13:45:00;13.60;;;8.60;;
5060;SDS011;2549;52.128;21.068;2023-12-04T13:47:28;9.98;;;6.88;;
5060;SDS011;2549;52.128;21.068;2023-12-04T13:49:55;13.13;;;7.40;;
5060;SDS011;2549;52.128;21.068;2023-12-04T13:52:24;13.55;;;7.72;;
5060;SDS011;2549;52.128;21.068;2023-12-04T13:54:53;15.38;;;8.77;;
5060;SDS011;2549;52.128;21.068;2023-12-04T13:57:21;15.68;;;7.70;;
5060;SDS011;2549;52.128;21.068;2023-12-04T13:59:54;15.65;;;8.20;;
5060;SDS011;2549;52.128;21.068;2023-12-04T14:02:24;13.98;;;7.63;;
5060;SDS011;2549;52.128;21.068;2023-12-04T14:04:51;16.27;;;7.63;;
5060;SDS011;2549;52.128;21.068;2023-12-04T14:07:19;16.30;;;9.20;;
5060;SDS011;2549;52.128;21.068;2023-12-04T14:09:46;17.27;;;9.43;;
5060;SDS011;2549;52.128;21.068;2023-12-04T14:12:13;15.95;;;9.00;;
5060;SDS011;2549;52.128;21.068;2023-12-04T14:14:42;26.85;;;8.98;;
5060;SDS011;2549;52.128;21.068;2023-12-04T14:17:09;18.92;;;9.52;;
5060;SDS011;2549;52.128;21.068;2023-12-04T14:19:38;18.77;;;9.38;;
5060;SDS011;2549;52.128;21.068;2023-12-04T14:22:06;15.93;;;7.68;;
5060;SDS011;2549;52.128;21.068;2023-12-04T14:24:33;15.15;;;8.13;;
5060;SDS011;2549;52.128;21.068;2023-12-04T14:27:01;16.90;;;8.30;;
5060;SDS011;2549;52.128;21.068;2023-12-04T14:29:29;18.83;;;10.07;;
5060;SDS011;2549;52.128;21.068;2023-12-04T14:31:56;27.48;;;10.43;;
5060;SDS011;2549;52.128;21.068;2023-12-04T14:34:23;20.63;;;9.80;;
5060;SDS011;2549;52.128;21.068;2023-12-04T14:36:51;21.60;;;10.95;;
5060;SDS011;2549;52.128;21.068;2023-12-04T14:39:18;17.75;;;10.00;;
5060;SDS011;2549;52.128;21.068;2023-12-04T14:41:45;22.50;;;9.65;;
5060;SDS011;2549;52.128;21.068;2023-12-04T14:44:12;19.88;;;9.98;;
5060;SDS011;2549;52.128;21.068;2023-12-04T14:46:40;22.95;;;10.43;;
5060;SDS011;2549;52.128;21.068;2023-12-04T14:49:10;17.30;;;9.45;;
5060;SDS011;2549;52.128;21.068;2023-12-04T14:51:38;22.40;;;10.75;;
5060;SDS011;2549;52.128;21.068;2023-12-04T14:54:05;16.30;;;9.18;;
5060;SDS011;2549;52.128;21.068;2023-12-04T14:56:48;18.15;;;9.85;;
5060;SDS011;2549;52.128;21.068;2023-12-04T14:59:34;19.42;;;9.88;;